Time;durP1;ratioP1;P1;durP2;ratioP2;P2;SDS_P1;SDS_P2;PMS_P1;PMS_P2;Temp;Humidity;BMP_temperature;BMP_pressure;BME280_temperature;BME280_humidity;BME280_pressure;Samples;Min_cycle;Max_cycle;Signal;HPM_P1;HPM_P2
2021/10/25 00:02:15;;;;;;;93.50;88.17;;;6.60;99.90;;;;;;4361449;33;20207;-63
2021/10/25 00:04:42;;;;;;;81.30;76.97;;;6.50;99.90;;;;;;4361417;33;20216;-64
2021/10/25 00:07:11;;;;;;;88.00;83.23;;;6.50;99.90;;;;;;4361297;33;20180;-62
2021/10/25 00:09:38;;;;;;;86.00;81.10;;;6.50;99.90;;;;;;4361870;32;20157;-60
2021/10/25 00:12:06;;;;;;;87.10;81.90;;;6.50;99.90;;;;;;4361519;33;20168;-60
2021/10/25 00:14:37;;;;;;;82.30;77.83;;;6.50;99.90;;;;;;4361762;33;20521;-60
2021/10/25 00:17:04;;;;;;;83.93;79.33;;;6.50;99.90;;;;;;4361101;33;20196;-60
2021/10/25 00:19:31;;;;;;;83.83;79.40;;;6.50;99.90;;;;;;4361675;32;20214;-59
2021/10/25 00:21:59;;;;;;;91.70;86.57;;;6.50;99.90;;;;;;4360916;33;20176;-61
2021/10/25 00:24:26;;;;;;;81.93;77.40;;;6.60;99.90;;;;;;4348510;33;20153;-60
2021/10/25 00:26:56;;;;;;;89.50;84.63;;;6.50;99.90;;;;;;4347295;33;20213;-60
2021/10/25 00:29:23;;;;;;;81.50;76.93;;;6.50;99.90;;;;;;4356891;32;20623;-60
2021/10/25 00:31:54;;;;;;;76.60;72.17;;;6.50;99.90;;;;;;4372930;32;20160;-60
2021/10/25 00:34:23;;;;;;;79.40;74.63;;;6.50;99.90;;;;;;4361510;33;20203;-60
2021/10/25 00:36:49;;;;;;;94.50;89.40;;;6.50;99.90;;;;;;4361413;32;20213;-60
2021/10/25 00:39:19;;;;;;;86.70;81.77;;;6.50;99.90;;;;;;4362857;32;20216;-60
2021/10/25 00:41:49;;;;;;;88.93;84.03;;;6.50;99.90;;;;;;4361106;33;20172;-60
2021/10/25 00:44:17;;;;;;;94.30;89.27;;;6.60;99.90;;;;;;4360294;32;20203;-60
2021/10/25 00:46:44;;;;;;;102.57;97.07;;;6.70;99.90;;;;;;4361831;32;20168;-60
2021/10/25 00:49:12;;;;;;;103.23;97.63;;;6.90;99.90;;;;;;4361015;33;20144;-60
2021/10/25 00:51:39;;;;;;;101.43;95.87;;;7.00;99.90;;;;;;4362955;32;20168;-60
2021/10/25 00:54:08;;;;;;;97.73;92.20;;;7.20;99.90;;;;;;4361126;33;20157;-60
2021/10/25 00:56:40;;;;;;;90.10;85.30;;;7.30;99.90;;;;;;4360818;33;20172;-60
2021/10/25 00:59:10;;;;;;;81.03;76.73;;;7.40;99.90;;;;;;4361053;33;20155;-60
2021/10/25 01:01:41;;;;;;;80.03;75.13;;;7.50;99.90;;;;;;4360883;33;20581;-60
2021/10/25 01:04:11;;;;;;;75.07;70.63;;;7.50;99.90;;;;;;4362020;32;20628;-60
2021/10/25 01:06:40;;;;;;;63.60;60.00;;;7.60;99.90;;;;;;4361958;32;20173;-60
2021/10/25 01:09:09;;;;;;;60.20;56.63;;;7.70;99.90;;;;;;4360697;33;20212;-60
2021/10/25 01:11:41;;;;;;;56.50;52.87;;;7.70;99.90;;;;;;4362591;32;20598;-60
2021/10/25 01:14:16;;;;;;;50.10;46.57;;;7.80;99.90;;;;;;4362560;32;20149;-60
2021/10/25 01:16:44;;;;;;;48.03;44.97;;;7.80;99.90;;;;;;4361007;32;20242;-60
2021/10/25 01:19:10;;;;;;;47.17;43.97;;;7.80;99.90;;;;;;4360427;32;20172;-60
2021/10/25 01:21:41;;;;;;;48.37;45.30;;;7.90;99.90;;;;;;4360602;33;20175;-60
2021/10/25 01:24:10;;;;;;;45.90;42.87;;;7.90;99.90;;;;;;4360616;33;20152;-60
2021/10/25 01:26:37;;;;;;;42.67;39.40;;;7.90;99.90;;;;;;4360736;33;20212;-60
2021/10/25 01:29:09;;;;;;;45.13;41.50;;;8.00;99.90;;;;;;4359590;33;20196;-60
2021/10/25 01:31:36;;;;;;;42.17;39.27;;;8.00;99.90;;;;;;4362130;32;20488;-61
2021/10/25 01:34:07;;;;;;;40.87;38.30;;;8.00;99.90;;;;;;4359778;32;20153;-60
2021/10/25 01:36:35;;;;;;;40.20;37.37;;;8.10;99.90;;;;;;4361049;32;20223;-60
2021/10/25 01:39:04;;;;;;;42.30;39.20;;;8.10;99.90;;;;;;4361854;32;20169;-60
2021/10/25 01:41:32;;;;;;;40.50;37.70;;;8.10;99.90;;;;;;4360444;32;20498;-60
2021/10/25 01:44:05;;;;;;;40.30;37.60;;;8.10;99.90;;;;;;4359815;33;20522;-60
2021/10/25 01:46:38;;;;;;;41.80;38.70;;;8.20;99.90;;;;;;4361591;32;20184;-60
2021/10/25 01:49:05;;;;;;;44.10;40.80;;;8.20;99.90;;;;;;4356646;32;20160;-60
2021/10/25 01:51:35;;;;;;;38.40;35.63;;;8.30;99.90;;;;;;4359401;33;20165;-60
2021/10/25 01:54:05;;;;;;;36.83;34.13;;;8.30;99.90;;;;;;4361242;32;20160;-60
2021/10/25 01:56:39;;;;;;;40.03;37.40;;;8.30;99.90;;;;;;4361695;32;20162;-60
2021/10/25 01:59:07;;;;;;;35.77;33.13;;;8.40;99.90;;;;;;4360086;33;20158;-60
2021/10/25 02:01:34;;;;;;;37.47;34.60;;;8.40;99.90;;;;;;4361621;32;20239;-60
2021/10/25 02:04:08;;;;;;;36.50;34.07;;;8.40;99.90;;;;;;4361417;33;20180;-60
2021/10/25 02:06:35;;;;;;;39.20;36.57;;;8.40;99.90;;;;;;4345462;33;20166;-60
2021/10/25 02:09:03;;;;;;;36.37;33.67;;;8.50;99.90;;;;;;4354608;33;20179;-60
2021/10/25 02:11:36;;;;;;;38.20;35.77;;;8.50;99.90;;;;;;4360005;33;20153;-60
2021/10/25 02:14:04;;;;;;;38.57;35.43;;;8.50;99.90;;;;;;4362168;33;20211;-60
2021/10/25 02:16:36;;;;;;;37.30;34.67;;;8.60;99.90;;;;;;4360640;33;20255;-60
2021/10/25 02:19:03;;;;;;;36.67;34.13;;;8.50;99.90;;;;;;4360087;33;20152;-60
2021/10/25 02:21:30;;;;;;;37.17;34.33;;;8.60;99.90;;;;;;4359628;33;20179;-60
2021/10/25 02:23:57;;;;;;;33.63;31.33;;;8.60;99.90;;;;;;4360251;33;20151;-60
2021/10/25 02:26:28;;;;;;;35.20;32.70;;;8.60;99.90;;;;;;4360140;33;20519;-60
2021/10/25 02:29:01;;;;;;;39.10;36.50;;;8.60;99.90;;;;;;4361060;33;20548;-60
2021/10/25 02:31:33;;;;;;;38.03;35.63;;;8.60;99.90;;;;;;4360241;33;20170;-60
2021/10/25 02:34:00;;;;;;;37.50;35.10;;;8.70;99.90;;;;;;4360015;33;20161;-60
2021/10/25 02:36:27;;;;;;;37.97;35.37;;;8.70;99.90;;;;;;4360790;33;20171;-60
2021/10/25 02:39:01;;;;;;;38.17;35.40;;;8.70;99.90;;;;;;4359637;33;20708;-60
2021/10/25 02:41:29;;;;;;;40.13;37.50;;;8.70;99.90;;;;;;4360568;33;20150;-60
2021/10/25 02:43:56;;;;;;;37.90;35.47;;;8.70;99.90;;;;;;4359150;33;20239;-60
2021/10/25 02:46:23;;;;;;;35.93;33.50;;;8.80;99.90;;;;;;4360930;33;20196;-60
2021/10/25 02:48:53;;;;;;;37.00;34.40;;;8.80;99.90;;;;;;4361843;33;20159;-60
2021/10/25 02:51:20;;;;;;;36.33;33.47;;;8.80;99.90;;;;;;4361315;32;20161;-60
2021/10/25 02:53:47;;;;;;;41.17;38.27;;;8.80;99.90;;;;;;4363602;32;20189;-60
2021/10/25 02:56:14;;;;;;;36.57;33.90;;;8.80;99.90;;;;;;4362459;33;20216;-60
2021/10/25 02:58:41;;;;;;;39.20;36.20;;;8.80;99.90;;;;;;4364342;32;20155;-60
2021/10/25 03:01:10;;;;;;;37.60;35.10;;;8.80;99.90;;;;;;4364395;32;20152;-60
2021/10/25 03:03:37;;;;;;;38.17;35.63;;;8.90;99.90;;;;;;4362529;32;20182;-60
2021/10/25 03:06:05;;;;;;;39.87;36.83;;;8.90;99.90;;;;;;4362549;33;20189;-60
2021/10/25 03:08:32;;;;;;;37.53;35.07;;;8.90;99.90;;;;;;4347708;33;20164;-60
2021/10/25 03:11:01;;;;;;;36.87;34.47;;;8.90;99.90;;;;;;4346852;33;20588;-60
2021/10/25 03:13:28;;;;;;;35.93;33.30;;;8.90;99.90;;;;;;4347679;33;20149;-60
2021/10/25 03:15:54;;;;;;;37.90;35.40;;;9.00;99.90;;;;;;4349635;33;20230;-60
2021/10/25 03:18:22;;;;;;;34.50;32.10;;;9.00;99.90;;;;;;4349403;33;20168;-60
2021/10/25 03:20:49;;;;;;;37.90;35.37;;;9.00;99.90;;;;;;4349103;33;20169;-60
2021/10/25 03:23:24;;;;;;;39.60;37.03;;;9.00;99.90;;;;;;4347238;33;20642;-60
2021/10/25 03:25:53;;;;;;;44.63;41.50;;;9.00;99.90;;;;;;4347192;33;20196;-60
2021/10/25 03:28:20;;;;;;;37.73;35.37;;;9.00;99.90;;;;;;4347685;33;20163;-60
2021/10/25 03:30:47;;;;;;;39.00;36.40;;;9.00;99.90;;;;;;4349247;33;20645;-60
2021/10/25 03:33:19;;;;;;;39.50;36.80;;;9.00;99.90;;;;;;4348714;32;20160;-60
2021/10/25 03:35:48;;;;;;;35.93;33.60;;;9.10;99.90;;;;;;4342958;33;20155;-60
2021/10/25 03:38:16;;;;;;;38.53;36.13;;;9.10;99.90;;;;;;4348272;33;20546;-60
2021/10/25 03:40:50;;;;;;;41.83;39.17;;;9.10;99.90;;;;;;4348627;33;20162;-60
2021/10/25 03:43:26;;;;;;;38.70;36.33;;;9.10;99.90;;;;;;4347477;33;20216;-60
2021/10/25 03:45:58;;;;;;;39.80;37.40;;;9.10;99.90;;;;;;4349368;32;20229;-60
2021/10/25 03:48:31;;;;;;;40.50;37.70;;;9.20;99.90;;;;;;4358629;32;20160;-60
2021/10/25 03:50:58;;;;;;;39.47;37.00;;;9.00;99.90;;;;;;4362706;32;20141;-60
2021/10/25 03:53:31;;;;;;;39.80;36.63;;;9.00;99.90;;;;;;4356538;33;20230;-60
2021/10/25 03:56:05;;;;;;;43.80;41.03;;;8.90;99.90;;;;;;4347052;33;20157;-60
2021/10/25 04:04:29;;;;;;;47.20;44.00;;;8.80;99.90;;;;;;4302414;33;20203;-60
2021/10/25 04:26:19;;;;;;;83.47;79.00;;;8.80;99.90;;;;;;4330432;33;20297;-60
2021/10/25 04:28:47;;;;;;;96.83;91.60;;;8.80;99.90;;;;;;4330754;33;20180;-60
2021/10/25 04:31:17;;;;;;;103.23;98.07;;;8.80;99.90;;;;;;4331640;33;20163;-60
2021/10/25 04:33:43;;;;;;;100.87;95.70;;;8.80;99.90;;;;;;4331613;33;20169;-60
2021/10/25 04:36:13;;;;;;;105.23;99.97;;;8.80;99.90;;;;;;4329246;33;20246;-60
2021/10/25 04:38:40;;;;;;;105.10;99.77;;;8.90;99.90;;;;;;4348837;32;20209;-60
2021/10/25 04:41:09;;;;;;;92.07;87.50;;;8.90;99.90;;;;;;4361897;32;20170;-60
2021/10/25 04:43:40;;;;;;;94.67;89.70;;;8.90;99.90;;;;;;4360959;33;20161;-60
2021/10/25 04:46:11;;;;;;;93.43;88.73;;;8.90;99.90;;;;;;4362369;32;20201;-60
2021/10/25 04:48:41;;;;;;;98.30;93.37;;;8.80;99.90;;;;;;4361187;32;20464;-60
2021/10/25 04:51:08;;;;;;;106.53;101.20;;;9.00;99.90;;;;;;4360607;32;20484;-60
2021/10/25 04:53:35;;;;;;;94.40;89.07;;;8.90;99.90;;;;;;4362111;32;20175;-60
2021/10/25 04:56:02;;;;;;;98.80;93.77;;;8.90;99.90;;;;;;4362526;32;20165;-62
2021/10/25 04:58:29;;;;;;;88.17;83.40;;;9.00;99.90;;;;;;4362126;32;20178;-62
2021/10/25 05:00:56;;;;;;;93.80;88.87;;;8.90;99.90;;;;;;4361043;33;20146;-63
2021/10/25 05:03:33;;;;;;;100.07;94.97;;;8.90;99.90;;;;;;4360774;32;20161;-63
2021/10/25 05:06:00;;;;;;;100.37;94.77;;;9.00;99.90;;;;;;4362176;32;20155;-60
2021/10/25 05:08:28;;;;;;;102.40;97.07;;;9.00;99.90;;;;;;4360740;33;20183;-62
2021/10/25 05:10:55;;;;;;;113.53;107.33;;;9.00;99.90;;;;;;4361189;33;20141;-61
2021/10/25 05:13:22;;;;;;;112.97;107.43;;;9.00;99.90;;;;;;4359872;32;20555;-62
2021/10/25 05:15:49;;;;;;;122.30;116.10;;;9.00;99.90;;;;;;4360142;33;20151;-60
2021/10/25 05:18:16;;;;;;;128.50;122.37;;;8.90;99.90;;;;;;4359594;32;20152;-60
2021/10/25 05:20:45;;;;;;;141.73;134.73;;;9.00;99.90;;;;;;4361858;32;20175;-60
2021/10/25 05:23:14;;;;;;;144.77;137.97;;;9.00;99.90;;;;;;4360342;33;20168;-61
2021/10/25 05:25:44;;;;;;;165.03;157.23;;;9.00;99.90;;;;;;4360647;32;20145;-62
2021/10/25 05:28:11;;;;;;;144.93;137.33;;;9.00;99.90;;;;;;4360350;32;20256;-60
2021/10/25 05:30:38;;;;;;;159.87;152.37;;;9.00;99.90;;;;;;4356586;32;20190;-60
2021/10/25 05:33:04;;;;;;;158.77;151.50;;;9.00;99.90;;;;;;4356515;33;20679;-61
2021/10/25 05:35:31;;;;;;;163.13;155.47;;;9.10;99.90;;;;;;4357910;32;20560;-61
2021/10/25 05:37:59;;;;;;;178.80;170.53;;;9.10;99.90;;;;;;4359396;32;20231;-61
2021/10/25 05:40:26;;;;;;;186.90;178.07;;;9.00;99.90;;;;;;4358342;32;20608;-63
2021/10/25 05:43:07;;;;;;;180.37;171.90;;;9.10;99.90;;;;;;4357041;32;20163;-61
2021/10/25 05:45:34;;;;;;;190.47;181.30;;;9.10;99.90;;;;;;4350571;33;20485;-62
2021/10/25 05:48:01;;;;;;;191.97;183.17;;;9.10;99.90;;;;;;4359718;32;20594;-62
2021/10/25 05:50:28;;;;;;;183.83;175.50;;;9.10;99.90;;;;;;4360070;32;20246;-61
2021/10/25 05:52:55;;;;;;;192.70;183.70;;;9.10;99.90;;;;;;4359242;32;20231;-61
2021/10/25 05:55:24;;;;;;;205.20;195.70;;;9.20;99.90;;;;;;4359185;32;20601;-63
2021/10/25 05:57:53;;;;;;;195.13;186.13;;;9.20;99.90;;;;;;4359160;32;20201;-61
2021/10/25 06:00:22;;;;;;;207.83;198.53;;;9.20;99.90;;;;;;4357171;33;20688;-61
2021/10/25 06:02:54;;;;;;;216.37;206.80;;;9.20;99.90;;;;;;4358243;32;20160;-62
2021/10/25 06:05:22;;;;;;;207.50;197.57;;;9.20;99.90;;;;;;4359454;32;20489;-62
2021/10/25 06:07:49;;;;;;;191.83;183.10;;;9.20;99.90;;;;;;4357484;32;20172;-61
2021/10/25 06:10:17;;;;;;;211.80;202.00;;;9.20;99.90;;;;;;4358837;32;20215;-61
2021/10/25 06:12:48;;;;;;;211.07;201.10;;;9.10;99.90;;;;;;4359700;33;20146;-62
2021/10/25 06:15:22;;;;;;;191.37;182.57;;;9.20;99.90;;;;;;4360825;33;20181;-62
2021/10/25 06:17:53;;;;;;;196.77;187.57;;;9.20;99.90;;;;;;4358651;33;20264;-62
2021/10/25 06:20:21;;;;;;;187.40;178.17;;;9.20;99.90;;;;;;4360629;33;20584;-61
2021/10/25 06:22:48;;;;;;;175.53;167.10;;;9.20;99.90;;;;;;4357307;33;20148;-64
2021/10/25 06:25:17;;;;;;;188.97;180.30;;;9.20;99.90;;;;;;4361590;32;20187;-63
2021/10/25 06:27:46;;;;;;;175.40;166.80;;;9.30;99.90;;;;;;4364005;32;20241;-61
2021/10/25 06:30:14;;;;;;;177.67;168.97;;;9.30;99.90;;;;;;4361840;33;20288;-65
2021/10/25 06:32:40;;;;;;;188.17;179.03;;;9.30;99.90;;;;;;4361448;32;20191;-63
2021/10/25 06:35:10;;;;;;;186.70;177.83;;;9.30;99.90;;;;;;4361246;32;20186;-62
2021/10/25 06:37:49;;;;;;;185.57;176.83;;;9.30;99.90;;;;;;4361435;32;20157;-61
2021/10/25 06:40:17;;;;;;;174.77;166.43;;;9.30;99.90;;;;;;4360658;33;20164;-65
2021/10/25 06:42:45;;;;;;;188.93;179.80;;;9.40;99.90;;;;;;4362523;32;20299;-62
2021/10/25 06:45:15;;;;;;;173.93;165.23;;;9.40;99.90;;;;;;4360577;32;20506;-62
2021/10/25 06:47:42;;;;;;;173.33;165.10;;;9.40;99.90;;;;;;4360351;32;20172;-61
2021/10/25 06:50:09;;;;;;;188.07;179.57;;;9.50;99.90;;;;;;4359966;33;20225;-63
2021/10/25 06:52:36;;;;;;;170.17;161.97;;;9.50;99.90;;;;;;4360240;33;20476;-64
2021/10/25 06:55:04;;;;;;;167.20;158.90;;;9.50;99.90;;;;;;4362710;32;20616;-61
2021/10/25 06:57:31;;;;;;;172.77;164.80;;;9.50;99.90;;;;;;4359621;32;20169;-61
2021/10/25 07:00:00;;;;;;;177.70;168.83;;;9.50;99.90;;;;;;4360916;32;20193;-64
2021/10/25 07:02:27;;;;;;;168.10;160.00;;;9.60;99.90;;;;;;4361646;32;20175;-64
2021/10/25 07:04:54;;;;;;;173.00;164.93;;;9.60;99.90;;;;;;4362118;32;20232;-63
2021/10/25 07:07:24;;;;;;;177.23;168.87;;;9.70;99.90;;;;;;4361037;32;20191;-61
2021/10/25 07:09:51;;;;;;;178.97;170.57;;;9.70;99.90;;;;;;4362593;32;20612;-62
2021/10/25 07:12:18;;;;;;;177.40;169.13;;;9.70;99.90;;;;;;4362287;32;20180;-61
2021/10/25 07:14:50;;;;;;;175.50;166.83;;;9.60;99.90;;;;;;4362360;32;20158;-63
2021/10/25 07:17:24;;;;;;;172.60;164.20;;;9.60;99.90;;;;;;4360817;32;20154;-61
2021/10/25 07:23:20;;;;;;;179.30;170.47;;;9.60;99.90;;;;;;4371195;32;2220192;-60
2021/10/25 07:26:22;;;;;;;165.20;157.40;;;9.70;99.90;;;;;;4424906;32;20243;-61
2021/10/25 08:02:07;;;;;;;176.53;168.00;;;9.90;99.90;;;;;;4418579;32;20174;-61
2021/10/25 08:07:26;;;;;;;173.47;164.57;;;10.10;99.90;;;;;;4416149;32;20181;-61
2021/10/25 08:09:54;;;;;;;180.50;171.63;;;10.10;99.90;;;;;;4417484;32;20174;-59
2021/10/25 08:12:25;;;;;;;176.03;167.40;;;10.20;99.90;;;;;;4414730;32;20165;-61
2021/10/25 08:14:56;;;;;;;197.13;187.97;;;10.20;99.90;;;;;;4418523;32;20224;-61
2021/10/25 08:17:26;;;;;;;182.63;173.73;;;10.20;99.90;;;;;;4416832;32;20167;-61
2021/10/25 08:19:53;;;;;;;181.03;172.67;;;10.20;99.90;;;;;;4424180;32;20195;-61
2021/10/25 08:22:20;;;;;;;166.80;158.63;;;10.30;99.90;;;;;;4421981;32;20301;-61
2021/10/25 08:24:50;;;;;;;185.73;176.73;;;10.20;99.90;;;;;;4421438;32;20186;-61
2021/10/25 08:27:19;;;;;;;184.73;175.97;;;10.20;99.90;;;;;;4418289;32;20224;-61
2021/10/25 08:29:49;;;;;;;182.17;173.30;;;10.20;99.90;;;;;;4420088;32;20673;-60
2021/10/25 08:32:40;;;;;;;163.40;155.20;;;10.20;99.90;;;;;;4419423;32;20187;-61
2021/10/25 08:35:32;;;;;;;154.70;147.30;;;10.20;99.90;;;;;;4415575;32;20538;-61
2021/10/25 08:40:51;;;;;;;169.57;161.73;;;10.20;99.90;;;;;;4386422;32;20192;-60
2021/10/25 08:43:18;;;;;;;182.67;174.17;;;10.10;99.90;;;;;;4381045;32;20226;-61
2021/10/25 08:45:50;;;;;;;178.37;169.93;;;10.20;99.90;;;;;;4380585;32;20590;-60
2021/10/25 08:48:17;;;;;;;170.67;162.50;;;10.20;99.90;;;;;;4389198;32;20199;-60
2021/10/25 08:50:44;;;;;;;174.70;166.47;;;10.20;99.90;;;;;;4384696;32;20597;-60
2021/10/25 08:53:12;;;;;;;181.43;173.20;;;10.20;99.90;;;;;;4387520;32;20162;-60
2021/10/25 08:55:39;;;;;;;180.63;172.00;;;10.20;99.90;;;;;;4375830;32;20161;-61
2021/10/25 08:58:07;;;;;;;179.77;171.27;;;10.20;99.90;;;;;;4383915;32;20196;-61
2021/10/25 09:00:42;;;;;;;164.83;156.93;;;10.30;99.90;;;;;;4387241;32;20235;-60
2021/10/25 09:03:11;;;;;;;172.50;164.20;;;10.30;99.90;;;;;;4388976;32;20596;-60
2021/10/25 09:05:40;;;;;;;164.27;156.50;;;10.30;99.90;;;;;;4390051;32;20202;-60
2021/10/25 09:08:11;;;;;;;164.50;156.87;;;10.40;99.90;;;;;;4385704;32;20259;-61
2021/10/25 09:10:43;;;;;;;161.10;153.50;;;10.40;99.90;;;;;;4389716;32;20164;-60
2021/10/25 09:13:13;;;;;;;168.17;160.47;;;10.40;99.90;;;;;;4380592;32;20495;-60
2021/10/25 09:15:42;;;;;;;156.37;148.50;;;10.40;99.90;;;;;;4382210;32;20168;-60
2021/10/25 09:18:13;;;;;;;178.43;169.83;;;10.40;99.90;;;;;;4401996;32;20155;-60
2021/10/25 09:20:45;;;;;;;171.00;162.87;;;10.40;99.90;;;;;;4411476;32;20215;-61
2021/10/25 09:23:15;;;;;;;157.53;149.83;;;10.40;99.90;;;;;;4419637;32;20160;-60
2021/10/25 09:25:42;;;;;;;168.50;160.13;;;10.40;99.90;;;;;;4416076;32;20163;-60
2021/10/25 09:28:15;;;;;;;192.13;183.30;;;10.50;99.90;;;;;;4414175;32;20481;-60
2021/10/25 09:30:47;;;;;;;179.17;169.93;;;10.70;99.90;;;;;;4413052;32;20194;-60
2021/10/25 09:33:21;;;;;;;194.40;185.40;;;10.80;99.90;;;;;;4412432;32;20159;-60
2021/10/25 09:35:54;;;;;;;167.83;159.70;;;10.80;99.90;;;;;;4411968;32;20511;-60
2021/10/25 09:38:24;;;;;;;175.87;167.70;;;10.90;99.90;;;;;;4412834;32;20166;-60
2021/10/25 09:41:18;;;;;;;172.90;164.50;;;10.90;99.90;;;;;;4414435;32;20219;-60
2021/10/25 09:49:17;;;;;;;159.77;152.00;;;10.90;99.90;;;;;;4422288;32;20179;-61
2021/10/25 09:51:52;;;;;;;177.80;169.37;;;11.00;99.90;;;;;;4419509;32;20203;-60
2021/10/25 09:54:22;;;;;;;167.00;158.80;;;11.20;99.90;;;;;;4423448;32;20151;-60
2021/10/25 09:57:02;;;;;;;174.47;166.13;;;11.40;99.90;;;;;;4412709;32;20152;-63
2021/10/25 09:59:33;;;;;;;156.33;148.67;;;11.60;99.90;;;;;;4408289;32;20151;-62
2021/10/25 10:02:00;;;;;;;152.30;144.80;;;11.60;99.90;;;;;;4414660;32;20175;-61
2021/10/25 10:04:30;;;;;;;146.30;139.27;;;11.60;99.90;;;;;;4406956;32;20563;-62
2021/10/25 10:06:58;;;;;;;143.40;135.80;;;11.50;99.90;;;;;;4416796;32;20172;-60
2021/10/25 10:09:25;;;;;;;146.67;139.67;;;11.50;99.90;;;;;;4420409;32;20568;-62
2021/10/25 10:11:57;;;;;;;136.67;130.13;;;11.40;99.90;;;;;;4420495;32;20180;-62
2021/10/25 10:14:25;;;;;;;136.63;130.00;;;11.40;99.90;;;;;;4420358;32;20198;-62
2021/10/25 10:16:52;;;;;;;140.40;133.70;;;11.60;99.90;;;;;;4417908;32;20160;-60
2021/10/25 10:19:24;;;;;;;149.00;141.37;;;11.60;99.90;;;;;;4421853;32;20521;-60
2021/10/25 10:21:56;;;;;;;135.13;128.70;;;11.80;99.90;;;;;;4421078;32;20166;-60
2021/10/25 10:24:30;;;;;;;138.43;131.47;;;11.80;99.90;;;;;;4407847;32;20183;-60
2021/10/25 10:26:58;;;;;;;131.57;124.40;;;11.70;99.90;;;;;;4417124;32;20193;-60
2021/10/25 10:29:26;;;;;;;130.87;124.23;;;11.70;99.90;;;;;;4406127;32;20227;-60
2021/10/25 10:32:00;;;;;;;139.87;132.30;;;11.70;99.90;;;;;;4411425;32;20181;-60
2021/10/25 10:34:37;;;;;;;124.60;118.13;;;11.80;99.90;;;;;;4413724;32;20186;-60
2021/10/25 10:37:16;;;;;;;140.93;133.70;;;11.70;99.90;;;;;;4417625;32;20241;-60
2021/10/25 10:39:43;;;;;;;143.00;135.67;;;11.70;99.90;;;;;;4414318;32;20193;-60
2021/10/25 10:42:11;;;;;;;143.23;135.87;;;11.80;99.90;;;;;;4417723;32;20640;-62
2021/10/25 10:44:52;;;;;;;137.13;129.87;;;12.00;99.90;;;;;;4414752;32;20315;-61
2021/10/25 10:47:27;;;;;;;134.00;126.83;;;12.20;99.90;;;;;;4412745;32;20182;-60
2021/10/25 10:49:56;;;;;;;138.13;130.70;;;12.40;99.90;;;;;;4413147;32;20170;-61
2021/10/25 10:52:29;;;;;;;144.60;137.10;;;12.40;99.90;;;;;;4413853;32;20211;-62
2021/10/25 10:55:00;;;;;;;119.67;112.97;;;12.50;99.90;;;;;;4416973;32;20564;-61
2021/10/25 10:58:11;;;;;;;111.07;104.90;;;12.60;99.90;;;;;;4411170;32;20156;-61
2021/10/25 11:00:41;;;;;;;102.07;96.27;;;12.60;99.90;;;;;;4413077;32;20255;-61
2021/10/25 11:03:21;;;;;;;102.73;96.90;;;12.60;99.90;;;;;;4415772;32;20268;-60
2021/10/25 11:06:01;;;;;;;107.60;101.90;;;12.60;99.90;;;;;;4419762;32;20201;-62
2021/10/25 11:08:32;;;;;;;108.43;102.00;;;12.70;99.90;;;;;;4413952;32;20653;-62
2021/10/25 11:11:02;;;;;;;105.33;98.80;;;12.70;99.90;;;;;;4420499;32;20159;-62
2021/10/25 11:13:31;;;;;;;96.17;90.37;;;12.50;99.90;;;;;;4420752;32;20553;-62
2021/10/25 11:16:05;;;;;;;98.60;92.53;;;12.30;99.90;;;;;;4408098;32;20710;-62
2021/10/25 11:18:35;;;;;;;100.43;94.47;;;12.30;99.90;;;;;;4407270;32;20144;-62
2021/10/25 11:21:11;;;;;;;98.87;93.13;;;12.30;99.90;;;;;;4412981;32;20171;-62
2021/10/25 11:23:43;;;;;;;98.77;93.10;;;12.30;99.90;;;;;;4416997;32;20767;-62
2021/10/25 11:26:16;;;;;;;108.37;102.00;;;12.40;99.90;;;;;;4418279;32;20208;-62
2021/10/25 11:28:54;;;;;;;104.20;97.90;;;12.40;99.90;;;;;;4410743;32;20163;-62
2021/10/25 11:31:21;;;;;;;104.30;98.23;;;12.50;99.90;;;;;;4413547;32;20179;-62
2021/10/25 11:33:49;;;;;;;103.17;97.20;;;12.70;99.90;;;;;;4418318;32;20237;-62
2021/10/25 11:36:16;;;;;;;94.90;89.50;;;12.80;99.90;;;;;;4405164;32;20187;-62
2021/10/25 11:38:45;;;;;;;95.50;90.03;;;12.90;99.90;;;;;;4409553;32;20155;-62
2021/10/25 11:41:12;;;;;;;96.87;91.47;;;13.00;99.90;;;;;;4412707;32;20220;-62
2021/10/25 11:43:38;;;;;;;92.33;87.03;;;13.30;99.90;;;;;;4408624;32;20218;-62
2021/10/25 11:46:15;;;;;;;101.80;95.83;;;13.50;99.90;;;;;;4420024;32;20197;-62
2021/10/25 11:48:42;;;;;;;90.70;85.40;;;13.60;99.90;;;;;;4420091;32;20151;-63
2021/10/25 11:51:10;;;;;;;94.83;88.93;;;13.70;99.90;;;;;;4410432;32;20183;-63
2021/10/25 11:53:37;;;;;;;91.33;86.07;;;13.70;99.90;;;;;;4422308;32;20190;-61
2021/10/25 11:56:13;;;;;;;84.50;79.53;;;13.70;99.90;;;;;;4420741;32;20591;-62
2021/10/25 11:58:43;;;;;;;85.53;80.47;;;13.70;99.90;;;;;;4413727;32;20232;-62
2021/10/25 12:01:13;;;;;;;81.57;76.73;;;13.70;99.90;;;;;;4410354;32;20160;-62
2021/10/25 12:03:41;;;;;;;82.67;77.73;;;13.80;99.90;;;;;;4406414;32;20253;-62
2021/10/25 12:06:14;;;;;;;89.93;84.83;;;13.80;99.90;;;;;;4417955;32;20186;-63
2021/10/25 12:08:41;;;;;;;81.40;76.80;;;13.60;99.90;;;;;;4422193;32;20604;-65
2021/10/25 12:11:10;;;;;;;82.97;78.30;;;13.60;99.90;;;;;;4416565;32;20634;-66
2021/10/25 12:13:37;;;;;;;92.20;87.03;;;13.50;99.90;;;;;;4422627;32;20183;-62
2021/10/25 12:16:09;;;;;;;91.20;85.93;;;13.50;99.90;;;;;;4419321;32;20205;-64
2021/10/25 12:18:36;;;;;;;90.33;85.00;;;13.50;99.90;;;;;;4411442;32;20155;-62
2021/10/25 12:21:09;;;;;;;91.37;86.23;;;13.70;99.90;;;;;;4414602;32;20190;-63
2021/10/25 12:23:46;;;;;;;92.53;87.00;;;13.80;99.90;;;;;;4423806;32;20743;-64
2021/10/25 12:26:16;;;;;;;96.17;91.00;;;13.90;99.90;;;;;;4422277;32;20159;-63
2021/10/25 12:28:43;;;;;;;92.90;87.53;;;14.00;99.90;;;;;;4424800;32;20166;-62
2021/10/25 12:31:12;;;;;;;96.93;91.33;;;14.10;99.90;;;;;;4418563;32;20154;-65
2021/10/25 12:33:39;;;;;;;98.70;93.60;;;14.20;99.90;;;;;;4422856;32;20202;-64
2021/10/25 12:36:13;;;;;;;93.73;88.83;;;14.20;99.90;;;;;;4420866;32;20158;-62
2021/10/25 12:38:42;;;;;;;98.30;93.10;;;14.10;99.90;;;;;;4424616;32;20572;-63
2021/10/25 12:41:09;;;;;;;103.17;97.43;;;14.00;99.90;;;;;;4413907;32;20624;-62
2021/10/25 12:43:42;;;;;;;105.07;99.00;;;14.00;99.90;;;;;;4407512;32;20155;-63
2021/10/25 12:46:10;;;;;;;104.53;98.40;;;14.00;99.90;;;;;;4416291;32;20231;-64
2021/10/25 12:48:42;;;;;;;95.57;90.13;;;13.90;99.90;;;;;;4422669;32;20173;-66
2021/10/25 12:51:10;;;;;;;98.87;93.13;;;13.90;99.90;;;;;;4418758;32;20171;-67
2021/10/25 12:53:42;;;;;;;103.43;97.70;;;14.10;99.90;;;;;;4417648;32;20280;-62
2021/10/25 12:56:09;;;;;;;99.43;93.93;;;14.20;99.90;;;;;;4414589;32;20199;-62
2021/10/25 12:58:36;;;;;;;102.00;96.20;;;14.30;99.90;;;;;;4415537;32;20187;-63
2021/10/25 13:01:10;;;;;;;100.47;95.10;;;14.30;99.90;;;;;;4413955;32;20189;-67
2021/10/25 13:03:37;;;;;;;97.10;91.73;;;14.30;99.90;;;;;;4414577;32;20253;-62
2021/10/25 13:06:08;;;;;;;95.80;90.57;;;14.30;99.90;;;;;;4413033;32;20219;-63
2021/10/25 13:08:36;;;;;;;97.60;92.40;;;14.20;99.90;;;;;;4413331;32;20213;-65
2021/10/25 13:11:04;;;;;;;108.90;103.10;;;14.20;99.90;;;;;;4415271;32;20207;-62
2021/10/25 13:13:33;;;;;;;103.27;97.63;;;14.20;99.90;;;;;;4415699;32;20163;-67
2021/10/25 13:16:01;;;;;;;109.10;103.50;;;14.20;99.90;;;;;;4410517;32;20167;-63
2021/10/25 13:18:30;;;;;;;102.20;96.90;;;14.10;99.90;;;;;;4413722;32;20581;-66
2021/10/25 13:20:58;;;;;;;101.97;96.47;;;14.10;99.90;;;;;;4412663;32;20227;-62
2021/10/25 13:23:25;;;;;;;101.43;96.13;;;14.10;99.90;;;;;;4417234;32;20224;-61
2021/10/25 13:25:52;;;;;;;102.73;97.27;;;14.20;99.90;;;;;;4413678;32;20163;-65
2021/10/25 13:28:20;;;;;;;101.03;95.83;;;14.20;99.90;;;;;;4414363;32;20265;-67
2021/10/25 13:30:47;;;;;;;107.23;101.50;;;14.20;99.90;;;;;;4414142;32;20651;-62
2021/10/25 13:33:14;;;;;;;109.93;104.03;;;14.10;99.90;;;;;;4413404;32;20507;-62
2021/10/25 13:35:43;;;;;;;103.43;98.00;;;14.10;99.90;;;;;;4411952;32;20186;-63
2021/10/25 13:38:10;;;;;;;102.60;97.20;;;14.10;99.90;;;;;;4415423;32;20167;-62
2021/10/25 13:40:38;;;;;;;107.20;101.47;;;14.20;99.90;;;;;;4412856;32;20567;-63
2021/10/25 13:43:06;;;;;;;107.73;102.03;;;14.20;99.90;;;;;;4412760;32;20179;-62
2021/10/25 13:45:35;;;;;;;117.27;111.07;;;14.30;99.90;;;;;;4413379;32;20248;-62
2021/10/25 13:48:02;;;;;;;109.23;103.67;;;14.40;99.90;;;;;;4412299;32;20231;-64
2021/10/25 13:50:29;;;;;;;121.47;115.33;;;14.40;99.90;;;;;;4413124;32;20216;-63